Time;durP1;ratioP1;P1;durP2;ratioP2;P2;SDS_P1;SDS_P2;PMS_P1;PMS_P2;Temp;Humidity;BMP_temperature;BMP_pressure;BME280_temperature;BME280_humidity;BME280_pressure;Samples;Min_cycle;Max_cycle;Signal;HPM_P1;HPM_P2
2021/04/28 00:00:15;;;;;;;6.47;4.65;;;15.70;99.90;;;;;;5053742;28;20033;-82
2021/04/28 00:02:41;;;;;;;6.03;4.45;;;15.70;99.90;;;;;;5046741;28;20032;-82
2021/04/28 00:05:08;;;;;;;7.50;4.60;;;16.00;99.90;;;;;;5043811;28;20412;-82
2021/04/28 00:07:34;;;;;;;5.38;4.28;;;15.60;99.90;;;;;;5040725;28;20029;-82
2021/04/28 00:10:00;;;;;;;7.30;4.38;;;15.60;99.90;;;;;;5046886;28;20029;-82
2021/04/28 00:12:26;;;;;;;6.97;4.45;;;15.60;99.90;;;;;;5049961;28;20049;-83
2021/04/28 00:14:52;;;;;;;6.68;4.35;;;15.90;99.90;;;;;;5054651;28;20128;-82
2021/04/28 00:17:18;;;;;;;8.63;4.53;;;15.60;99.90;;;;;;5035569;28;20040;-83
2021/04/28 00:19:44;;;;;;;6.88;4.30;;;15.50;99.90;;;;;;5042760;28;20021;-82
2021/04/28 00:22:10;;;;;;;5.70;3.75;;;16.00;99.90;;;;;;5048487;28;20029;-83
2021/04/28 00:24:36;;;;;;;7.28;4.22;;;15.50;99.90;;;;;;5048605;28;20076;-82
2021/04/28 00:27:02;;;;;;;7.20;4.10;;;15.50;99.90;;;;;;5054629;28;20028;-82
2021/04/28 00:29:28;;;;;;;5.78;3.65;;;15.50;99.90;;;;;;5048619;28;20511;-82
2021/04/28 00:31:53;;;;;;;10.32;4.40;;;15.50;99.90;;;;;;5043815;28;20048;-81
2021/04/28 00:34:19;;;;;;;7.65;4.60;;;15.40;99.90;;;;;;5048420;28;20017;-82
2021/04/28 00:36:45;;;;;;;5.88;3.88;;;15.70;99.90;;;;;;5046752;28;20129;-82
2021/04/28 00:39:10;;;;;;;9.25;4.13;;;15.40;99.90;;;;;;5053741;28;20013;-82
2021/04/28 00:41:36;;;;;;;7.10;3.88;;;15.40;99.90;;;;;;5046702;28;20037;-82
2021/04/28 00:44:02;;;;;;;6.70;3.92;;;15.40;99.90;;;;;;5048342;28;20021;-82
2021/04/28 00:46:28;;;;;;;6.53;4.10;;;15.40;99.90;;;;;;5041482;28;20032;-82
2021/04/28 00:48:53;;;;;;;6.95;4.20;;;15.60;99.90;;;;;;5048388;28;20029;-82
2021/04/28 00:51:19;;;;;;;7.85;4.32;;;15.50;99.90;;;;;;5051324;28;20044;-83
2021/04/28 00:53:45;;;;;;;8.82;3.85;;;15.30;99.90;;;;;;5050612;28;20021;-82
2021/04/28 00:56:11;;;;;;;10.48;4.53;;;15.40;99.90;;;;;;5047492;28;20041;-83
2021/04/28 00:58:37;;;;;;;9.40;4.90;;;15.30;99.90;;;;;;5047562;28;20023;-82
2021/04/28 01:01:03;;;;;;;11.57;4.65;;;15.30;99.90;;;;;;5042843;28;20040;-82
2021/04/28 01:03:29;;;;;;;7.30;4.22;;;15.30;99.90;;;;;;5048379;28;20104;-82
2021/04/28 01:06:04;;;;;;;7.35;4.43;;;15.40;99.90;;;;;;5053482;28;20551;-82
2021/04/28 01:08:31;;;;;;;7.25;4.25;;;15.40;99.90;;;;;;5047471;28;20032;-82
2021/04/28 01:10:57;;;;;;;7.35;4.65;;;15.30;99.90;;;;;;5042497;28;20032;-82
2021/04/28 01:13:24;;;;;;;8.15;4.80;;;15.20;99.90;;;;;;5048594;28;20036;-82
2021/04/28 01:15:51;;;;;;;5.80;4.03;;;15.20;99.90;;;;;;5042370;28;20042;-82
2021/04/28 01:18:18;;;;;;;6.03;4.40;;;15.30;99.90;;;;;;5048258;28;20025;-83
2021/04/28 01:20:44;;;;;;;9.75;4.38;;;15.30;99.90;;;;;;5051685;28;20025;-82
2021/04/28 01:23:11;;;;;;;10.27;4.45;;;15.20;99.90;;;;;;5047068;28;20028;-80
2021/04/28 01:25:38;;;;;;;8.02;4.22;;;15.20;99.90;;;;;;5047581;28;20102;-83
2021/04/28 01:28:24;;;;;;;8.85;4.47;;;15.30;99.90;;;;;;5047156;28;20048;-82
2021/04/28 01:31:11;;;;;;;6.60;4.30;;;15.40;99.90;;;;;;5016984;28;20037;-82
2021/04/28 01:33:46;;;;;;;11.70;4.95;;;15.30;99.90;;;;;;5017609;28;20049;-82
2021/04/28 01:36:21;;;;;;;10.35;4.22;;;15.50;99.90;;;;;;5050800;28;20029;-82
2021/04/28 01:38:50;;;;;;;10.90;5.03;;;15.30;99.90;;;;;;5050342;28;20063;-82
2021/04/28 01:41:17;;;;;;;7.53;4.40;;;15.20;99.90;;;;;;5046173;28;20061;-82
2021/04/28 01:43:44;;;;;;;7.40;4.18;;;15.40;99.90;;;;;;5047253;28;20025;-82
2021/04/28 01:46:11;;;;;;;7.20;4.38;;;15.20;99.90;;;;;;5039433;28;20436;-82
2021/04/28 01:48:41;;;;;;;8.07;4.90;;;15.20;99.90;;;;;;5047132;28;20018;-82
2021/04/28 01:51:09;;;;;;;10.10;5.32;;;15.10;99.90;;;;;;5051827;28;20119;-82
2021/04/28 01:53:37;;;;;;;8.73;4.50;;;15.10;99.90;;;;;;5048994;28;20029;-82
2021/04/28 01:56:04;;;;;;;6.18;4.75;;;15.10;99.90;;;;;;5045605;28;20366;-82
2021/04/28 01:58:31;;;;;;;8.43;5.20;;;15.10;99.90;;;;;;5044960;28;20021;-82
2021/04/28 02:00:57;;;;;;;8.55;4.85;;;15.00;99.90;;;;;;5040650;28;20176;-82
2021/04/28 02:03:25;;;;;;;8.70;4.97;;;15.30;99.90;;;;;;5048891;28;20038;-82
2021/04/28 02:05:52;;;;;;;7.43;4.78;;;15.20;99.90;;;;;;5051643;28;20436;-82
2021/04/28 02:08:19;;;;;;;8.02;4.78;;;14.90;99.90;;;;;;5046717;28;20485;-82
2021/04/28 02:10:45;;;;;;;7.80;5.50;;;15.20;99.90;;;;;;5046795;28;20082;-82
2021/04/28 02:13:13;;;;;;;9.32;5.15;;;14.80;99.90;;;;;;5045713;28;20029;-82
2021/04/28 02:15:40;;;;;;;8.57;5.10;;;14.70;99.90;;;;;;5035867;28;20084;-82
2021/04/28 02:18:07;;;;;;;7.25;5.00;;;15.00;99.90;;;;;;5052375;28;20520;-82
2021/04/28 02:20:33;;;;;;;14.85;5.40;;;14.70;99.90;;;;;;5046596;28;20036;-82
2021/04/28 02:23:02;;;;;;;9.90;5.47;;;14.80;99.90;;;;;;5036143;28;20032;-82
2021/04/28 02:25:28;;;;;;;8.48;5.88;;;14.90;99.90;;;;;;5038578;28;20032;-82
2021/04/28 02:27:54;;;;;;;10.48;6.28;;;14.70;99.90;;;;;;5045845;28;20024;-82
2021/04/28 02:30:22;;;;;;;7.75;5.32;;;15.00;99.90;;;;;;5039211;28;20121;-82
2021/04/28 02:32:49;;;;;;;8.82;5.57;;;14.70;99.90;;;;;;5050802;28;20497;-82
2021/04/28 02:35:15;;;;;;;7.47;4.78;;;14.70;99.90;;;;;;5044550;28;20041;-82
2021/04/28 02:37:42;;;;;;;8.73;4.95;;;14.80;99.90;;;;;;5045867;28;20020;-82
2021/04/28 02:40:11;;;;;;;7.22;4.60;;;14.60;99.90;;;;;;5046094;28;20404;-82
2021/04/28 02:42:39;;;;;;;5.35;4.35;;;14.70;99.90;;;;;;5045513;28;20018;-82
2021/04/28 02:45:07;;;;;;;6.10;4.28;;;14.70;99.90;;;;;;5042949;28;20029;-82
2021/04/28 02:47:34;;;;;;;7.05;4.95;;;14.60;99.90;;;;;;5046373;28;20025;-82
2021/04/28 02:50:04;;;;;;;6.45;4.13;;;14.60;99.90;;;;;;5045693;28;20047;-82
2021/04/28 02:52:30;;;;;;;9.68;4.22;;;14.60;99.90;;;;;;5045620;28;20021;-82
2021/04/28 02:54:56;;;;;;;9.30;4.57;;;14.60;99.90;;;;;;5046236;28;20040;-82
2021/04/28 02:57:23;;;;;;;9.32;4.35;;;14.60;99.90;;;;;;5047387;28;20041;-82
2021/04/28 02:59:51;;;;;;;7.57;4.47;;;14.60;99.90;;;;;;5043931;28;20029;-82
2021/04/28 03:02:18;;;;;;;6.15;4.10;;;14.60;99.90;;;;;;5043209;28;20116;-82
2021/04/28 03:04:45;;;;;;;8.05;4.43;;;14.60;99.90;;;;;;5045547;28;20115;-82
2021/04/28 03:07:12;;;;;;;7.18;4.10;;;14.60;99.90;;;;;;5045932;28;20029;-82
2021/04/28 03:09:40;;;;;;;8.98;4.45;;;14.60;99.90;;;;;;5046447;28;20103;-82
2021/04/28 03:12:06;;;;;;;5.28;3.85;;;14.60;99.90;;;;;;5050484;28;20036;-82
2021/04/28 03:14:31;;;;;;;6.30;3.97;;;14.60;99.90;;;;;;5031145;28;20087;-82
2021/04/28 03:16:57;;;;;;;5.70;3.80;;;14.60;99.90;;;;;;5041130;28;20029;-82
2021/04/28 03:19:24;;;;;;;6.72;3.70;;;14.60;99.90;;;;;;5045284;28;20057;-82
2021/04/28 03:21:50;;;;;;;6.53;3.80;;;14.40;99.90;;;;;;5045140;28;20624;-82
2021/04/28 03:24:17;;;;;;;6.72;4.57;;;14.70;99.90;;;;;;5048410;28;20487;-82
2021/04/28 03:26:43;;;;;;;8.55;4.60;;;14.40;99.90;;;;;;5049139;28;20029;-82
2021/04/28 03:29:09;;;;;;;7.30;4.05;;;14.40;99.90;;;;;;5037250;28;20037;-82
2021/04/28 03:31:35;;;;;;;9.75;4.05;;;14.40;99.90;;;;;;5035775;28;20041;-82
2021/04/28 03:34:01;;;;;;;6.93;4.15;;;14.50;99.90;;;;;;5037677;28;20052;-82
2021/04/28 03:36:26;;;;;;;6.03;3.97;;;14.30;99.90;;;;;;5050023;28;20044;-82
2021/04/28 03:38:52;;;;;;;6.60;4.07;;;14.60;99.90;;;;;;5054741;28;20036;-82
2021/04/28 03:41:18;;;;;;;8.93;4.68;;;14.60;99.90;;;;;;5048966;28;20063;-82
2021/04/28 03:43:44;;;;;;;7.03;4.28;;;14.30;99.90;;;;;;5048062;28;20048;-81
2021/04/28 03:46:10;;;;;;;7.43;4.10;;;14.40;99.90;;;;;;5043445;28;20034;-82
2021/04/28 03:48:36;;;;;;;6.20;4.18;;;14.40;99.90;;;;;;5049703;28;20481;-81
2021/04/28 03:51:02;;;;;;;5.13;3.90;;;14.50;99.90;;;;;;5056221;28;20108;-81
2021/04/28 03:53:28;;;;;;;5.10;4.35;;;14.30;99.90;;;;;;5047745;28;20658;-82
2021/04/28 03:55:54;;;;;;;6.13;4.20;;;14.30;99.90;;;;;;5048926;28;20117;-81
2021/04/28 03:58:19;;;;;;;6.68;4.47;;;14.30;99.90;;;;;;5049138;28;20033;-82
2021/04/28 04:00:45;;;;;;;7.53;4.30;;;14.30;99.90;;;;;;5046927;28;20037;-82
2021/04/28 04:03:10;;;;;;;5.30;4.43;;;14.40;99.90;;;;;;5050399;28;20032;-82
2021/04/28 04:05:36;;;;;;;6.80;4.57;;;14.40;99.90;;;;;;5051102;28;20029;-82
2021/04/28 04:08:01;;;;;;;6.10;4.10;;;14.40;99.90;;;;;;5048980;28;20043;-82
2021/04/28 04:10:27;;;;;;;8.70;4.22;;;14.40;99.90;;;;;;5047866;28;20052;-82
2021/04/28 04:12:53;;;;;;;4.47;4.07;;;14.30;99.90;;;;;;5049004;28;20026;-82
2021/04/28 04:15:18;;;;;;;7.68;4.30;;;14.40;99.90;;;;;;5050298;28;20041;-82
2021/04/28 04:17:44;;;;;;;6.95;4.55;;;14.40;99.90;;;;;;5047716;28;20044;-82
2021/04/28 04:20:10;;;;;;;6.03;4.38;;;14.40;99.90;;;;;;5046773;28;20032;-82
2021/04/28 04:22:36;;;;;;;5.55;4.45;;;14.50;99.90;;;;;;5049186;28;20021;-82
2021/04/28 04:25:03;;;;;;;6.15;4.60;;;14.60;99.90;;;;;;5049321;28;20032;-82
2021/04/28 04:27:28;;;;;;;5.75;4.03;;;14.40;99.90;;;;;;5049997;28;20060;-82
2021/04/28 04:29:54;;;;;;;5.45;4.28;;;14.70;99.90;;;;;;5053849;28;20060;-82
2021/04/28 04:32:19;;;;;;;6.80;4.28;;;14.40;99.90;;;;;;5042633;28;20053;-82
2021/04/28 04:34:46;;;;;;;6.70;4.45;;;14.40;99.90;;;;;;5048775;28;20040;-82
2021/04/28 04:37:11;;;;;;;5.63;3.95;;;14.40;99.90;;;;;;5047625;28;20143;-82
2021/04/28 04:39:37;;;;;;;7.60;4.30;;;14.50;99.90;;;;;;5047742;28;20482;-82
2021/04/28 04:42:03;;;;;;;5.22;3.90;;;14.50;99.90;;;;;;5054156;28;20032;-82
2021/04/28 04:44:28;;;;;;;5.57;3.53;;;14.60;99.90;;;;;;5049208;28;20025;-82
2021/04/28 04:46:54;;;;;;;6.78;4.15;;;14.60;99.90;;;;;;5038003;28;20037;-82
2021/04/28 04:49:20;;;;;;;4.22;3.72;;;14.60;99.90;;;;;;5044829;28;20025;-82
2021/04/28 04:51:45;;;;;;;4.78;3.80;;;14.70;99.90;;;;;;5048083;28;20114;-82
2021/04/28 04:54:11;;;;;;;5.50;3.90;;;14.60;99.90;;;;;;5051658;28;20057;-82
2021/04/28 04:56:37;;;;;;;4.32;3.78;;;14.50;99.90;;;;;;5050104;28;20493;-82
2021/04/28 04:59:03;;;;;;;5.00;3.85;;;14.50;99.90;;;;;;5048059;28;20024;-82
2021/04/28 05:01:28;;;;;;;7.00;3.95;;;14.30;99.90;;;;;;5042149;28;20087;-82
2021/04/28 05:03:54;;;;;;;4.28;3.60;;;14.70;99.90;;;;;;5047802;28;20024;-82
2021/04/28 05:06:21;;;;;;;3.90;3.50;;;14.40;99.90;;;;;;5050270;28;20025;-82
2021/04/28 05:08:47;;;;;;;5.25;3.72;;;14.70;99.90;;;;;;5052087;28;20025;-82
2021/04/28 05:11:13;;;;;;;5.38;3.85;;;14.40;99.90;;;;;;5046545;28;20075;-82
2021/04/28 05:13:38;;;;;;;5.38;4.00;;;14.60;99.90;;;;;;5047421;28;20024;-82
2021/04/28 05:16:04;;;;;;;5.70;4.20;;;14.40;99.90;;;;;;5043151;28;20037;-82
2021/04/28 05:18:30;;;;;;;5.07;3.83;;;14.40;99.90;;;;;;5047904;28;20057;-82
2021/04/28 05:20:55;;;;;;;5.55;4.60;;;14.50;99.90;;;;;;5053290;28;20033;-82
2021/04/28 05:23:21;;;;;;;5.05;4.18;;;14.60;99.90;;;;;;5046794;28;20025;-83
2021/04/28 05:25:46;;;;;;;4.78;3.78;;;14.40;99.90;;;;;;5047341;28;20020;-82
2021/04/28 05:28:12;;;;;;;6.75;3.95;;;14.30;99.90;;;;;;5047328;28;20033;-82
2021/04/28 05:30:38;;;;;;;6.20;4.70;;;14.40;99.90;;;;;;5040501;28;20057;-82
2021/04/28 05:33:04;;;;;;;5.82;4.30;;;14.30;99.90;;;;;;5053383;28;20053;-81
2021/04/28 05:35:30;;;;;;;8.00;3.95;;;14.30;99.90;;;;;;5047942;28;20033;-82
2021/04/28 05:37:55;;;;;;;7.22;4.38;;;14.40;99.90;;;;;;5046787;28;20103;-82
2021/04/28 05:40:21;;;;;;;6.78;4.43;;;14.90;99.90;;;;;;5047562;28;20496;-82
2021/04/28 05:42:47;;;;;;;5.07;4.43;;;14.70;99.90;;;;;;5047173;28;20076;-82
2021/04/28 05:45:14;;;;;;;6.07;4.20;;;14.70;99.90;;;;;;5041785;28;20490;-81
2021/04/28 05:47:40;;;;;;;5.97;4.13;;;14.60;99.90;;;;;;5050672;28;20381;-81
2021/04/28 05:50:07;;;;;;;8.18;4.95;;;14.70;99.90;;;;;;5044338;28;20033;-81
2021/04/28 05:52:33;;;;;;;5.60;4.10;;;14.60;99.90;;;;;;5046313;28;20554;-82
2021/04/28 05:54:59;;;;;;;4.70;4.10;;;14.70;99.90;;;;;;5046894;28;20033;-81
2021/04/28 05:57:25;;;;;;;5.15;4.63;;;15.00;99.90;;;;;;5048316;28;20072;-82
2021/04/28 05:59:50;;;;;;;6.95;4.47;;;14.50;99.90;;;;;;5039423;28;20093;-82
2021/04/28 06:02:16;;;;;;;7.43;4.50;;;14.80;99.90;;;;;;5044797;28;20116;-81
2021/04/28 06:04:41;;;;;;;8.93;4.57;;;14.90;99.90;;;;;;5046222;28;20036;-87
2021/04/28 06:07:07;;;;;;;5.05;4.18;;;15.00;99.90;;;;;;5046860;28;20040;-84
2021/04/28 06:09:33;;;;;;;6.50;4.35;;;14.80;99.90;;;;;;5047287;28;20030;-84
2021/04/28 06:11:59;;;;;;;5.28;4.35;;;15.00;99.90;;;;;;5052867;28;20392;-84
2021/04/28 06:14:25;;;;;;;6.15;4.57;;;15.20;99.90;;;;;;5035532;28;20030;-85
2021/04/28 06:16:50;;;;;;;4.97;4.25;;;15.20;99.90;;;;;;5041560;28;20048;-83
2021/04/28 06:19:16;;;;;;;7.25;4.50;;;15.30;99.90;;;;;;5046430;28;20511;-84
2021/04/28 06:21:42;;;;;;;5.03;4.07;;;14.90;99.90;;;;;;5046739;28;20033;-84
2021/04/28 06:24:09;;;;;;;5.35;4.00;;;15.10;99.90;;;;;;5051328;28;20025;-84
2021/04/28 06:26:36;;;;;;;6.97;3.97;;;14.90;99.90;;;;;;5047309;28;20037;-82
2021/04/28 06:29:03;;;;;;;4.50;3.78;;;15.30;99.90;;;;;;5035834;28;20023;-83
2021/04/28 06:31:28;;;;;;;4.95;4.00;;;15.20;99.90;;;;;;5037169;28;20056;-81
2021/04/28 06:33:54;;;;;;;6.82;3.83;;;15.00;99.90;;;;;;5043891;28;20037;-83
2021/04/28 06:36:19;;;;;;;5.13;4.03;;;15.00;99.90;;;;;;5048013;28;20040;-85
2021/04/28 06:38:45;;;;;;;7.07;4.30;;;15.00;99.90;;;;;;5050416;28;20033;-83
2021/04/28 06:41:11;;;;;;;5.18;4.03;;;14.90;99.90;;;;;;5046010;28;20511;-83
2021/04/28 06:43:37;;;;;;;5.90;4.28;;;15.50;99.90;;;;;;5039214;28;20048;-83
2021/04/28 06:46:03;;;;;;;4.78;4.00;;;15.10;99.90;;;;;;5045859;28;20037;-83
2021/04/28 06:48:28;;;;;;;4.88;3.75;;;15.10;99.90;;;;;;5047322;28;20026;-84
2021/04/28 06:50:54;;;;;;;4.47;3.38;;;15.10;99.90;;;;;;5051336;28;20028;-83
2021/04/28 06:53:22;;;;;;;4.05;3.47;;;15.10;99.90;;;;;;5045951;28;20108;-83
2021/04/28 06:55:48;;;;;;;5.35;3.88;;;14.90;99.90;;;;;;5046266;28;20167;-83
2021/04/28 06:58:13;;;;;;;4.85;3.72;;;14.90;99.90;;;;;;5040570;28;20526;-83
2021/04/28 07:00:39;;;;;;;4.68;3.28;;;15.20;99.90;;;;;;5035289;28;20033;-83
2021/04/28 07:03:05;;;;;;;7.57;4.65;;;15.00;99.90;;;;;;5051749;28;20025;-83
2021/04/28 07:05:30;;;;;;;4.60;3.53;;;15.20;99.90;;;;;;5042173;28;20516;-84
2021/04/28 07:07:56;;;;;;;3.97;3.58;;;15.10;99.90;;;;;;5044568;28;20401;-83
2021/04/28 07:10:22;;;;;;;5.93;3.47;;;15.30;99.90;;;;;;5044529;28;20460;-84
2021/04/28 07:12:48;;;;;;;5.20;3.15;;;15.20;99.90;;;;;;5043316;28;20040;-83
2021/04/28 07:15:14;;;;;;;3.55;3.20;;;15.10;99.90;;;;;;5045713;28;20029;-83
2021/04/28 07:17:39;;;;;;;3.65;3.25;;;15.20;99.90;;;;;;5047181;28;20048;-83
2021/04/28 07:20:07;;;;;;;3.72;3.30;;;15.20;99.90;;;;;;5045413;28;20025;-83
2021/04/28 07:22:34;;;;;;;3.80;3.38;;;15.50;99.90;;;;;;5045490;28;20033;-83
2021/04/28 07:25:00;;;;;;;4.43;3.03;;;15.50;99.90;;;;;;5045936;28;20087;-83
2021/04/28 07:27:26;;;;;;;6.32;3.28;;;15.10;99.90;;;;;;5046772;28;20030;-82
2021/04/28 07:29:51;;;;;;;5.15;3.53;;;15.30;99.90;;;;;;5045591;28;20033;-83
2021/04/28 07:32:17;;;;;;;5.97;3.80;;;15.40;99.90;;;;;;5045168;28;20108;-83
2021/04/28 07:34:44;;;;;;;6.28;3.60;;;15.90;99.90;;;;;;5045150;28;20493;-83
2021/04/28 07:37:10;;;;;;;4.07;3.38;;;15.40;99.90;;;;;;5045319;28;20120;-83
2021/04/28 07:39:36;;;;;;;5.90;3.40;;;15.30;99.90;;;;;;5046052;28;20217;-84
2021/04/28 07:42:02;;;;;;;4.57;3.15;;;15.40;99.90;;;;;;5051860;28;20033;-83
2021/04/28 07:44:30;;;;;;;4.38;3.30;;;15.20;99.90;;;;;;5044031;28;20029;-84
2021/04/28 07:47:02;;;;;;;4.40;2.88;;;15.50;99.90;;;;;;5044545;28;20115;-84
2021/04/28 07:49:28;;;;;;;5.28;3.08;;;15.10;99.90;;;;;;5045084;28;20025;-83
2021/04/28 07:51:54;;;;;;;3.80;3.47;;;15.50;99.90;;;;;;5045057;28;21672;-83
2021/04/28 07:54:21;;;;;;;6.47;3.15;;;15.70;99.90;;;;;;5047276;28;20070;-83
2021/04/28 07:56:47;;;;;;;3.30;2.80;;;16.00;99.90;;;;;;5046168;28;20040;-82
2021/04/28 07:59:14;;;;;;;3.55;3.22;;;15.50;99.90;;;;;;5042283;28;20032;-83
2021/04/28 08:01:39;;;;;;;3.38;3.00;;;15.30;99.90;;;;;;5044577;28;20033;-84
2021/04/28 08:04:05;;;;;;;3.50;3.08;;;15.30;99.90;;;;;;5045258;28;20513;-83
2021/04/28 08:06:31;;;;;;;4.40;2.95;;;15.50;99.90;;;;;;5013618;28;20120;-83
2021/04/28 08:08:57;;;;;;;4.90;2.72;;;15.50;99.90;;;;;;5051155;28;20032;-83
2021/04/28 08:11:22;;;;;;;4.13;2.55;;;15.30;99.90;;;;;;5043431;28;20040;-84
2021/04/28 08:13:48;;;;;;;4.00;3.00;;;14.70;99.90;;;;;;5041765;28;20166;-83
2021/04/28 08:16:15;;;;;;;3.22;2.92;;;14.70;99.90;;;;;;5048247;28;20045;-83
2021/04/28 08:18:40;;;;;;;4.03;2.90;;;14.90;99.90;;;;;;5048831;28;20030;-83
2021/04/28 08:21:06;;;;;;;4.97;3.28;;;14.80;99.90;;;;;;5054878;28;20578;-83
2021/04/28 08:23:32;;;;;;;4.05;3.10;;;14.50;99.90;;;;;;5050359;28;20049;-83
2021/04/28 08:26:02;;;;;;;3.80;2.85;;;14.40;99.90;;;;;;5047025;28;20112;-83
2021/04/28 08:28:29;;;;;;;3.80;2.88;;;14.30;99.90;;;;;;5038360;28;20032;-84
2021/04/28 08:30:54;;;;;;;2.95;2.65;;;14.70;99.90;;;;;;5048321;28;20041;-83
2021/04/28 08:33:20;;;;;;;3.35;2.78;;;14.90;99.90;;;;;;5050810;28;20093;-83
2021/04/28 08:35:46;;;;;;;2.97;2.67;;;14.90;99.90;;;;;;5051744;28;20668;-83
2021/04/28 08:38:11;;;;;;;3.25;2.95;;;15.00;99.90;;;;;;5048332;28;20482;-83
2021/04/28 08:40:38;;;;;;;4.53;2.90;;;14.90;99.90;;;;;;5039422;28;20112;-84
2021/04/28 08:43:04;;;;;;;3.70;3.30;;;14.70;99.90;;;;;;5037108;28;20024;-82
2021/04/28 08:45:29;;;;;;;5.15;3.05;;;14.70;99.90;;;;;;5048266;28;20034;-83
2021/04/28 08:47:56;;;;;;;3.20;2.90;;;14.70;99.90;;;;;;5054086;28;20497;-83
2021/04/28 08:50:22;;;;;;;5.82;3.20;;;15.30;99.90;;;;;;5047936;28;20067;-84
2021/04/28 08:52:51;;;;;;;3.67;3.13;;;15.00;99.90;;;;;;5048568;28;20434;-83
2021/04/28 08:55:18;;;;;;;3.83;3.17;;;15.10;99.90;;;;;;5043748;28;20036;-83
2021/04/28 08:57:44;;;;;;;2.92;2.72;;;14.90;99.90;;;;;;5033927;28;20383;-83
2021/04/28 09:00:11;;;;;;;3.67;3.05;;;14.80;99.90;;;;;;5051518;28;20024;-83
2021/04/28 09:02:51;;;;;;;4.30;3.70;;;15.00;99.90;;;;;;5050429;28;20059;-84
2021/04/28 09:05:16;;;;;;;6.18;3.70;;;14.80;99.90;;;;;;5046269;28;20112;-83
2021/04/28 09:07:43;;;;;;;3.65;3.33;;;14.50;99.90;;;;;;5038103;28;20103;-83
2021/04/28 09:10:10;;;;;;;5.15;3.40;;;14.60;99.90;;;;;;5041781;28;20034;-84
2021/04/28 09:12:38;;;;;;;3.95;3.47;;;14.40;1.00;;;;;;5047704;28;20026;-83
2021/04/28 09:15:05;;;;;;;6.47;4.20;;;14.20;99.90;;;;;;5054094;28;20048;-83
2021/04/28 09:17:48;;;;;;;4.75;4.25;;;14.00;99.90;;;;;;5048941;28;20111;-84
2021/04/28 09:20:22;;;;;;;5.10;4.10;;;13.90;99.90;;;;;;5047666;28;20040;-84
2021/04/28 09:23:12;;;;;;;7.82;4.30;;;13.60;99.90;;;;;;5047618;28;20036;-83
2021/04/28 09:25:52;;;;;;;6.55;4.90;;;13.80;99.90;;;;;;5041887;28;20092;-83
2021/04/28 09:28:24;;;;;;;6.85;5.30;;;14.10;49.80;;;;;;5047114;28;20032;-84
2021/04/28 09:30:50;;;;;;;6.00;5.00;;;14.30;3.90;;;;;;5047480;28;20082;-83
2021/04/28 09:33:16;;;;;;;5.55;4.80;;;14.50;1.00;;;;;;5050358;28;20022;-83
2021/04/28 09:35:42;;;;;;;6.30;4.50;;;14.70;99.90;;;;;;5051413;28;20385;-84
2021/04/28 09:38:07;;;;;;;7.05;5.60;;;15.00;99.90;;;;;;5046673;28;20037;-84
2021/04/28 09:40:45;;;;;;;5.18;4.22;;;15.50;99.90;;;;;;5042273;28;20557;-84
2021/04/28 09:43:12;;;;;;;4.13;3.72;;;15.80;99.90;;;;;;5045162;28;20056;-84
2021/04/28 09:45:44;;;;;;;3.85;3.40;;;16.00;99.90;;;;;;5045815;28;20029;-83
2021/04/28 09:48:25;;;;;;;5.95;3.83;;;15.80;99.90;;;;;;5046185;28;20025;-83
2021/04/28 09:51:06;;;;;;;5.60;3.92;;;16.30;99.90;;;;;;5051296;28;20021;-84
2021/04/28 09:53:32;;;;;;;4.88;3.70;;;16.10;99.90;;;;;;5047516;28;20111;-83
2021/04/28 09:55:58;;;;;;;4.22;3.47;;;16.30;99.90;;;;;;5039833;28;20037;-83
2021/04/28 09:58:46;;;;;;;5.70;3.50;;;16.20;99.90;;;;;;5046045;28;20111;-84
2021/04/28 10:01:13;;;;;;;4.53;3.80;;;16.10;99.90;;;;;;5047053;28;20064;-83
2021/04/28 10:03:49;;;;;;;6.28;3.38;;;15.70;99.90;;;;;;5043065;28;20032;-83
2021/04/28 10:06:34;;;;;;;5.43;4.00;;;16.00;99.90;;;;;;5050168;28;20029;-83
2021/04/28 10:09:00;;;;;;;4.35;3.28;;;16.50;99.90;;;;;;5043339;28;20469;-84
2021/04/28 10:11:27;;;;;;;4.05;3.53;;;17.10;99.90;;;;;;5045749;28;20090;-83
2021/04/28 10:13:54;;;;;;;3.05;2.75;;;17.30;99.90;;;;;;5046575;28;20104;-84
2021/04/28 10:16:21;;;;;;;3.88;3.40;;;17.00;99.90;;;;;;5046648;28;20557;-84
2021/04/28 10:18:47;;;;;;;4.63;3.38;;;16.90;99.90;;;;;;5047161;28;20033;-84
2021/04/28 10:21:16;;;;;;;4.20;3.80;;;17.00;99.90;;;;;;5050598;28;20079;-83
2021/04/28 10:23:43;;;;;;;3.17;2.88;;;17.30;99.90;;;;;;5048304;28;20028;-84
2021/04/28 10:26:08;;;;;;;4.03;3.35;;;17.60;99.90;;;;;;5042155;28;20064;-84
2021/04/28 10:28:34;;;;;;;3.95;2.70;;;17.80;99.90;;;;;;5045771;28;20055;-84
2021/04/28 10:31:03;;;;;;;3.05;2.50;;;17.90;99.90;;;;;;5047154;28;20382;-84
2021/04/28 10:33:32;;;;;;;2.78;2.58;;;17.80;99.90;;;;;;5047601;28;20033;-84
2021/04/28 10:35:58;;;;;;;2.85;2.35;;;18.10;99.90;;;;;;5051788;28;20036;-84
2021/04/28 10:38:26;;;;;;;3.67;2.58;;;17.70;99.90;;;;;;5038847;28;20033;-84
2021/04/28 10:40:53;;;;;;;2.75;2.15;;;17.60;99.90;;;;;;5041055;28;20024;-84
2021/04/28 10:43:20;;;;;;;2.17;2.00;;;16.80;99.90;;;;;;5046116;28;20447;-84
2021/04/28 10:45:47;;;;;;;2.20;1.92;;;17.10;99.90;;;;;;5045359;28;20048;-84
2021/04/28 10:48:17;;;;;;;2.67;2.22;;;17.40;99.90;;;;;;5050150;28;20025;-84
2021/04/28 10:50:49;;;;;;;3.63;2.55;;;17.20;99.90;;;;;;5049918;28;20192;-84
2021/04/28 10:53:23;;;;;;;2.50;2.30;;;17.70;99.90;;;;;;5036793;28;20084;-84
2021/04/28 10:55:54;;;;;;;2.42;2.15;;;17.70;99.90;;;;;;5038085;28;20040;-84
2021/04/28 10:58:26;;;;;;;2.15;1.95;;;16.90;99.90;;;;;;5044916;28;20029;-84
2021/04/28 11:01:00;;;;;;;2.15;1.95;;;17.00;99.90;;;;;;5044772;28;20508;-84
2021/04/28 11:03:43;;;;;;;1.73;1.60;;;16.80;99.90;;;;;;5046989;28;20036;-84
2021/04/28 11:08:45;;;;;;;2.15;1.95;;;16.40;99.90;;;;;;5042977;28;20025;-84
2021/04/28 11:11:29;;;;;;;2.20;1.85;;;16.70;99.90;;;;;;5041498;28;20036;-84
2021/04/28 11:14:28;;;;;;;2.33;1.60;;;16.50;99.90;;;;;;5045641;28;20071;-84
2021/04/28 11:16:54;;;;;;;2.78;1.77;;;16.60;99.90;;;;;;5040843;28;20064;-84
2021/04/28 11:19:27;;;;;;;2.33;1.98;;;15.90;99.90;;;;;;5045459;28;20112;-84
2021/04/28 11:22:12;;;;;;;2.17;1.90;;;15.80;99.90;;;;;;5045615;28;20021;-84
2021/04/28 11:25:03;;;;;;;3.13;2.00;;;16.40;99.90;;;;;;5023321;28;20029;-84
2021/04/28 11:27:55;;;;;;;1.98;1.85;;;16.70;99.90;;;;;;5024290;28;20045;-84
2021/04/28 11:30:31;;;;;;;3.28;2.25;;;17.90;99.90;;;;;;5044867;28;20104;-84
2021/04/28 11:33:12;;;;;;;2.67;2.40;;;18.30;99.90;;;;;;5051394;28;20123;-84
2021/04/28 11:35:53;;;;;;;2.58;2.35;;;18.40;99.90;;;;;;5048499;28;20033;-84
2021/04/28 11:38:26;;;;;;;2.28;2.08;;;18.20;99.90;;;;;;5036099;28;20108;-84
2021/04/28 11:41:06;;;;;;;2.30;2.10;;;18.00;99.90;;;;;;5039340;28;20032;-84
2021/04/28 11:43:41;;;;;;;2.28;2.08;;;19.60;99.90;;;;;;5045379;28;20404;-84
2021/04/28 11:46:16;;;;;;;2.25;2.05;;;19.80;99.90;;;;;;5041711;28;20419;-84
2021/04/28 11:48:48;;;;;;;3.78;2.22;;;20.80;99.90;;;;;;5048039;28;20030;-84
2021/04/28 11:51:16;;;;;;;4.97;2.30;;;20.60;99.90;;;;;;5053291;28;20366;-84
2021/04/28 11:53:48;;;;;;;2.42;2.22;;;21.10;99.90;;;;;;5042487;28;20385;-84
2021/04/28 11:56:27;;;;;;;2.97;2.22;;;20.40;99.90;;;;;;5044968;28;20029;-84
2021/04/28 11:58:52;;;;;;;2.38;2.17;;;19.70;99.90;;;;;;5037362;28;20021;-84
2021/04/28 12:01:18;;;;;;;2.92;2.55;;;19.20;99.90;;;;;;5039799;28;20033;-84
2021/04/28 12:03:50;;;;;;;3.00;2.70;;;19.20;99.90;;;;;;5049349;28;20140;-84
2021/04/28 12:06:32;;;;;;;3.03;2.72;;;18.70;99.90;;;;;;5052889;28;20615;-84
2021/04/28 12:09:30;;;;;;;3.28;2.90;;;18.60;99.90;;;;;;5054364;28;20036;-84
2021/04/28 12:12:14;;;;;;;6.97;2.38;;;19.30;99.90;;;;;;5055061;28;20035;-84
2021/04/28 12:14:42;;;;;;;3.40;2.70;;;19.20;99.90;;;;;;5031980;28;20505;-84
2021/04/28 12:17:08;;;;;;;4.88;2.63;;;20.20;99.90;;;;;;5044776;28;20119;-84
2021/04/28 12:19:35;;;;;;;2.95;2.65;;;19.70;99.90;;;;;;5047480;28;20108;-84
2021/04/28 12:22:09;;;;;;;2.90;2.53;;;20.30;99.90;;;;;;5048705;28;20032;-84
2021/04/28 12:24:39;;;;;;;3.13;2.72;;;20.10;99.90;;;;;;5018242;28;20025;-84
2021/04/28 12:27:23;;;;;;;4.25;2.70;;;21.80;99.90;;;;;;5047324;28;20417;-82
2021/04/28 12:29:54;;;;;;;3.13;2.25;;;21.80;99.90;;;;;;5036619;28;20108;-85
2021/04/28 12:32:26;;;;;;;3.28;2.45;;;21.10;99.90;;;;;;5047171;28;20128;-84
2021/04/28 12:35:16;;;;;;;2.22;2.00;;;21.00;99.90;;;;;;5047199;28;20029;-84
2021/04/28 12:37:57;;;;;;;3.88;2.50;;;19.30;99.90;;;;;;5048321;28;20032;-84
2021/04/28 12:40:34;;;;;;;3.47;2.80;;;19.60;99.90;;;;;;5048495;28;20385;-84
2021/04/28 12:43:00;;;;;;;4.47;2.42;;;19.20;99.90;;;;;;5044970;28;20534;-84
2021/04/28 12:45:26;;;;;;;4.07;2.58;;;19.00;99.90;;;;;;5048390;28;20022;-84
2021/04/28 12:47:51;;;;;;;3.28;2.80;;;18.60;99.90;;;;;;5053768;28;20029;-84
2021/04/28 12:50:24;;;;;;;2.80;2.28;;;18.60;99.90;;;;;;5048330;28;20040;-84
2021/04/28 12:52:50;;;;;;;2.70;2.50;;;18.40;99.90;;;;;;5048472;28;20059;-84